CheckWX is a tool to help pilots better visualize weather data.  It is not intended as a substitute for an official pre-flight weather briefing.

07:49:28 UTC

SCQP METAR
Temuco Airport
Temuco, Switzerland
Current

49 mins ago

SCQP 180700Z 31005KT 9999 OVC012 08/07 Q1022
Observed
Sep-18 @ 07:00 UTC
Wind
  • 310° at 5 KTS
Visibility
10,000+ meters
Flight Rules
MVFR
Cloud Levels
  • Overcast at 1,200' AGL
Temperature
C / 46°F
Dewpoint
C / 45°F
Humidity
93%
Altimeter
30.18" Hg
Pressure
1021.92 hPa
Previous

2 hours ago

SCQP 180600Z 30004KT 260V320 9999 BKN012 08/07 Q1023
Observed
Sep-18 @ 06:00 UTC
Wind
  • 300° at 4 KTS
Visibility
10,000+ meters
Flight Rules
MVFR
Cloud Levels
  • Broken at 1,200' AGL
Temperature
C / 46°F
Dewpoint
C / 45°F
Humidity
93%
Altimeter
30.21" Hg
Pressure
1022.92 hPa
Previous

3 hours ago

SCQP 180500Z 35005KT 9999 BKN011 07/07 Q1022
Observed
Sep-18 @ 05:00 UTC
Wind
  • 350° at 5 KTS
Visibility
10,000+ meters
Flight Rules
MVFR
Cloud Levels
  • Broken at 1,100' AGL
Temperature
C / 45°F
Dewpoint
C / 45°F
Humidity
100%
Altimeter
30.18" Hg
Pressure
1021.92 hPa